Date,TemperatureHighF,TemperatureAvgF,TemperatureLowF,DewpointHighF,DewpointAvgF,DewpointLowF,HumidityHigh,HumidityAvg,HumidityLow,PressureMaxIn,PressureMinIn,WindSpeedMaxMPH,WindSpeedAvgMPH,GustSpeedMaxMPH,PrecipitationSumIn
2012-12-1,62,59,57,59,57,55,96,94,89,30.00,29.88,16,4,23,0.13
2012-12-2,63,57,49,59,55,46,97,93,77,30.02,29.79,28,6,31,1.00
2012-12-3,60,53,45,53,49,43,94,87,74,30.12,30.01,7,2,8,0.00
2012-12-4,60,55,50,54,52,48,95,89,79,30.19,30.09,5,1,7,0.00
2012-12-5,60,58,55,59,56,53,97,96,86,30.12,29.99,6,1,10,0.65
2012-12-6,62,55,48,56,51,45,98,88,73,30.05,29.97,10,2,13,0.01
2012-12-7,65,51,43,54,47,42,97,89,65,30.06,29.97,7,1,8,0.01
2012-12-8,60,48,38,52,44,37,97,86,62,30.00,29.91,6,1,6,0.01
2012-12-9,67,54,44,50,44,37,88,68,44,30.09,29.99,6,2,7,0.00
2012-12-10,66,53,45,52,45,41,89,76,50,30.13,30.01,6,1,8,0.00
2012-12-11,61,51,41,53,46,39,93,84,73,30.01,29.81,17,2,17,0.00
2012-12-12,56,50,40,51,44,38,95,83,55,29.84,29.76,13,2,15,0.23
2012-12-13,56,45,38,45,39,34,93,80,50,29.83,29.74,9,2,12,0.00
2012-12-14,54,46,36,43,39,33,91,79,60,29.95,29.76,5,2,9,0.00
2012-12-15,49,44,38,44,40,36,93,86,77,30.03,29.91,13,3,15,0.04
2012-12-16,54,49,46,48,44,42,88,81,77,30.04,29.95,8,3,11,0.04
2012-12-17,55,51,43,54,50,42,97,96,95,30.01,29.90,14,2,20,0.40
2012-12-18,54,44,38,44,36,31,97,75,46,30.12,29.91,13,2,21,0.00
2012-12-19,56,43,34,40,33,29,85,70,46,30.24,30.11,6,2,8,0.00
2012-12-20,58,48,39,46,36,29,77,64,46,30.16,29.97,16,4,18,0.00
2012-12-21,56,50,46,51,43,34,90,76,61,29.97,29.85,15,6,24,0.12
2012-12-22,56,54,50,54,52,49,95,91,86,30.04,29.81,23,6,27,0.16
2012-12-23,56,54,47,56,53,46,97,97,94,30.04,29.82,23,8,28,0.23
2012-12-24,56,48,41,51,44,40,98,86,65,30.13,29.94,9,2,9,0.24
2012-12-25,54,48,42,49,43,38,97,84,68,30.07,29.78,11,3,22,0.86
2012-12-26,51,47,44,50,46,42,97,94,89,30.04,29.82,10,2,16,1.22
2012-12-27,58,47,39,44,40,36,95,80,49,30.10,30.01,8,1,12,0.00
2012-12-28,52,45,38,43,40,36,92,82,64,30.11,29.95,8,3,11,0.10
2012-12-29,53,46,38,45,42,36,94,85,69,30.01,29.90,8,2,11,0.42
2012-12-30,56,44,36,49,39,33,95,84,56,30.09,29.96,10,1,12,0.00
2012-12-31,55,45,35,42,37,32,92,74,48,30.21,30.09,6,2,10,0.00